createdAt,value
2019-05-15T00:00:18.292Z,4.6
2019-05-15T00:01:25.355Z,4.5
2019-05-15T00:02:34.654Z,4.6
2019-05-15T00:03:43.914Z,4.5
2019-05-15T00:04:53.222Z,4.5
2019-05-15T00:06:02.579Z,4.5
2019-05-15T00:07:11.699Z,4.5
2019-05-15T00:08:20.956Z,4.4
2019-05-15T00:09:30.224Z,4.4
2019-05-15T00:10:39.630Z,4.4
2019-05-15T00:11:48.781Z,4.3
2019-05-15T00:12:58.132Z,4.3
2019-05-15T00:14:08.638Z,4.3
2019-05-15T00:15:18.177Z,4.3
2019-05-15T00:16:25.803Z,4.2
2019-05-15T00:17:35.178Z,4.2
2019-05-15T00:18:44.295Z,4.2
2019-05-15T00:19:53.560Z,4.2
2019-05-15T00:21:02.855Z,4.2
2019-05-15T00:22:12.166Z,4.1
2019-05-15T00:23:21.337Z,4.2
2019-05-15T00:24:30.585Z,4.1
2019-05-15T00:25:39.856Z,4.1
2019-05-15T00:26:49.107Z,4.1
2019-05-15T00:27:58.367Z,4
2019-05-15T00:29:15.016Z,4
2019-05-15T00:30:18.328Z,4
2019-05-15T00:31:26.173Z,4
2019-05-15T00:32:35.416Z,4.1
2019-05-15T00:33:44.633Z,4
2019-05-15T00:34:54.085Z,4
2019-05-15T00:36:03.143Z,3.9
2019-05-15T00:37:12.601Z,3.9
2019-05-15T00:38:21.790Z,3.9
2019-05-15T00:39:30.913Z,3.9
2019-05-15T00:40:42.304Z,3.8
2019-05-15T00:41:54.206Z,3.8
2019-05-15T00:42:58.649Z,3.9
2019-05-15T00:44:09.166Z,3.8
2019-05-15T00:45:18.471Z,3.8
2019-05-15T00:46:28.881Z,3.8
2019-05-15T00:47:35.708Z,3.8
2019-05-15T00:48:44.909Z,3.8
2019-05-15T00:49:54.290Z,3.8
2019-05-15T00:51:03.419Z,3.7
2019-05-15T00:52:12.903Z,3.7
2019-05-15T00:53:21.915Z,3.7
2019-05-15T00:54:31.220Z,3.7
2019-05-15T00:55:40.428Z,3.7
2019-05-15T00:56:49.655Z,3.6
2019-05-15T00:57:59.055Z,3.6
2019-05-15T00:59:08.407Z,3.6
2019-05-15T01:00:18.634Z,3.6
2019-05-15T01:01:28.618Z,3.6
2019-05-15T01:02:38.182Z,3.5
2019-05-15T01:04:54.392Z,3.3
2019-05-15T01:06:03.626Z,3.3
2019-05-15T01:07:12.876Z,3.3
2019-05-15T01:08:22.141Z,3.2
2019-05-15T01:09:31.543Z,3.3
2019-05-15T01:10:40.712Z,3.3
2019-05-15T01:11:49.823Z,3.2
2019-05-15T01:14:12.108Z,3.1
2019-05-15T01:15:18.379Z,3.1
2019-05-15T01:16:28.078Z,3.2
2019-05-15T01:18:45.293Z,3.2
2019-05-15T01:19:54.482Z,3.2
2019-05-15T01:21:03.939Z,3.2
2019-05-15T01:22:12.980Z,3.3
2019-05-15T01:23:22.295Z,3.3
2019-05-15T01:24:31.634Z,3.3
2019-05-15T01:25:40.817Z,3.3
2019-05-15T01:26:49.921Z,3.3
2019-05-15T01:27:59.211Z,3.3
2019-05-15T01:29:09.125Z,3.3
2019-05-15T01:30:17.954Z,3.3
2019-05-15T01:31:28.485Z,3.3
2019-05-15T01:32:39.109Z,3.2
2019-05-15T01:33:45.353Z,3.2
2019-05-15T01:34:54.765Z,3.1
2019-05-15T01:36:03.861Z,3.1
2019-05-15T01:37:13.084Z,3
2019-05-15T01:38:22.336Z,3.1
2019-05-15T01:39:31.474Z,3.1
2019-05-15T01:40:41.981Z,3
2019-05-15T01:41:49.939Z,3.1
2019-05-15T01:42:59.259Z,3.1
2019-05-15T01:44:08.891Z,3.1
2019-05-15T01:45:18.894Z,3.3
2019-05-15T01:46:28.517Z,3.2
2019-05-15T01:47:38.560Z,3.2
2019-05-15T01:48:45.659Z,3.1
2019-05-15T01:49:55.118Z,3.1
2019-05-15T01:51:03.839Z,3.1
2019-05-15T01:52:13.064Z,3.1
2019-05-15T01:53:22.364Z,3.1
2019-05-15T01:54:31.494Z,3.1
2019-05-15T01:55:40.713Z,3.1
2019-05-15T01:56:50.010Z,3.1
2019-05-15T01:57:59.232Z,3.1
2019-05-15T01:59:08.711Z,3
2019-05-15T02:00:18.799Z,3
2019-05-15T02:01:28.296Z,3.1
2019-05-15T02:02:38.643Z,3.1
2019-05-15T02:03:45.458Z,3.1
2019-05-15T02:04:54.609Z,3
2019-05-15T02:06:03.901Z,2.9
2019-05-15T02:07:13.032Z,2.8
2019-05-15T02:08:22.618Z,2.8
2019-05-15T02:09:31.499Z,2.8
2019-05-15T02:10:40.907Z,2.8
2019-05-15T02:11:50.022Z,2.8
2019-05-15T02:12:59.262Z,2.7
2019-05-15T02:14:08.488Z,2.7
2019-05-15T02:15:18.978Z,2.6
2019-05-15T02:16:28.604Z,2.7
2019-05-15T02:17:36.216Z,2.7
2019-05-15T02:18:45.263Z,2.6
2019-05-15T02:19:54.641Z,2.7
2019-05-15T02:21:06.515Z,2.7
2019-05-15T02:22:13.033Z,2.6
2019-05-15T02:23:22.199Z,2.6
2019-05-15T02:24:31.434Z,2.6
2019-05-15T02:25:40.676Z,2.6
2019-05-15T02:26:50.119Z,2.5
2019-05-15T02:27:59.071Z,2.6
2019-05-15T02:29:10.456Z,2.6
2019-05-15T02:30:27.620Z,2.6
2019-05-15T02:31:29.756Z,2.6
2019-05-15T02:32:39.079Z,2.7
2019-05-15T02:33:45.122Z,2.7
2019-05-15T02:34:54.498Z,2.6
2019-05-15T02:36:03.680Z,2.6
2019-05-15T02:37:12.837Z,2.7
2019-05-15T02:38:22.115Z,2.7
2019-05-15T02:39:31.214Z,2.6
2019-05-15T02:40:41.104Z,2.6
2019-05-15T02:41:49.783Z,2.5
2019-05-15T02:42:59.214Z,2.5
2019-05-15T02:44:10.858Z,2.5
2019-05-15T02:45:19.463Z,2.5
2019-05-15T02:46:29.801Z,2.4
2019-05-15T02:47:35.786Z,2.3
2019-05-15T02:48:44.972Z,2.3
2019-05-15T02:49:54.190Z,2.3
2019-05-15T02:51:03.355Z,2.3
2019-05-15T02:52:12.579Z,2.3
2019-05-15T02:53:21.814Z,2.3
2019-05-15T02:54:32.163Z,2.3
2019-05-15T02:55:41.377Z,2.4
2019-05-15T02:56:50.627Z,2.5
2019-05-15T02:57:59.813Z,2.6
2019-05-15T02:59:09.296Z,2.6
2019-05-15T03:00:35.686Z,2.6
2019-05-15T03:01:28.512Z,2.6
2019-05-15T03:02:36.689Z,2.7
2019-05-15T03:03:45.810Z,2.7
2019-05-15T03:04:55.032Z,2.7
2019-05-15T03:06:04.354Z,2.7
2019-05-15T03:07:13.467Z,2.7
2019-05-15T03:08:22.801Z,2.8
2019-05-15T03:09:33.224Z,2.8
2019-05-15T03:10:41.313Z,2.9
2019-05-15T03:11:50.375Z,2.9
2019-05-15T03:13:00.185Z,2.9
2019-05-15T03:14:09.336Z,2.9
2019-05-15T03:15:19.421Z,2.9
2019-05-15T03:16:30.273Z,2.9
2019-05-15T03:17:40.182Z,2.9
2019-05-15T03:18:45.652Z,2.9
2019-05-15T03:19:54.880Z,2.9
2019-05-15T03:21:04.368Z,2.9
2019-05-15T03:22:13.459Z,2.9
2019-05-15T03:23:22.677Z,2.9
2019-05-15T03:24:31.851Z,3
2019-05-15T03:25:41.243Z,3
2019-05-15T03:26:50.347Z,3
2019-05-15T03:27:59.735Z,3.1
2019-05-15T03:29:10.047Z,3
2019-05-15T03:30:21.594Z,3.1
2019-05-15T03:31:43.082Z,3.1
2019-05-15T03:32:45.800Z,3
2019-05-15T03:33:47.211Z,3.1
2019-05-15T03:34:58.517Z,3
2019-05-15T03:36:05.116Z,3.1
2019-05-15T03:37:14.346Z,3.1
2019-05-15T03:38:23.587Z,3.1
2019-05-15T03:39:33.052Z,3
2019-05-15T03:41:51.250Z,3
2019-05-15T03:43:00.500Z,3
2019-05-15T03:44:09.757Z,3
2019-05-15T03:45:19.314Z,3
2019-05-15T03:47:40.052Z,3
2019-05-15T03:48:48.690Z,3
2019-05-15T03:49:55.846Z,3
2019-05-15T03:51:05.077Z,3
2019-05-15T03:52:14.292Z,3
2019-05-15T03:53:23.564Z,3
2019-05-15T03:54:32.844Z,3
2019-05-15T03:55:41.993Z,3
2019-05-15T03:56:51.167Z,3
2019-05-15T03:58:00.405Z,3.1
2019-05-15T03:59:09.677Z,3.1
2019-05-15T04:00:19.469Z,3.1
2019-05-15T04:01:33.427Z,3.2
2019-05-15T04:02:39.348Z,3.2
2019-05-15T04:03:49.531Z,3.2
2019-05-15T04:04:57.964Z,3.2
2019-05-15T04:06:05.001Z,3.2
2019-05-15T04:07:14.998Z,3.2
2019-05-15T04:08:23.426Z,3.2
2019-05-15T04:09:33.746Z,3.2
2019-05-15T04:10:43.589Z,3.2
2019-05-15T04:11:52.239Z,3.2
2019-05-15T04:13:01.417Z,3.2
2019-05-15T04:14:10.657Z,3.3
2019-05-15T04:15:20.026Z,3.3
2019-05-15T04:16:29.684Z,3.3
2019-05-15T04:17:40.009Z,3.4
2019-05-15T04:18:49.005Z,3.4
2019-05-15T04:19:58.868Z,3.6
2019-05-15T04:21:08.856Z,3.6
2019-05-15T04:22:15.255Z,3.7
2019-05-15T04:23:24.478Z,3.8
2019-05-15T04:24:33.719Z,3.8
2019-05-15T04:25:42.974Z,3.8
2019-05-15T04:26:52.267Z,3.9
2019-05-15T04:28:01.415Z,3.9
2019-05-15T04:29:10.691Z,4
2019-05-15T04:30:19.900Z,4.1
2019-05-15T04:31:31.678Z,4.2
2019-05-15T04:32:39.755Z,4.2
2019-05-15T04:33:49.064Z,4.3
2019-05-15T04:34:59.306Z,4.3
2019-05-15T04:36:09.454Z,4.3
2019-05-15T04:38:24.585Z,4.4
2019-05-15T04:39:33.835Z,4.4
2019-05-15T04:40:43.861Z,4.5
2019-05-15T04:41:52.359Z,4.6
2019-05-15T04:43:01.600Z,4.8
2019-05-15T04:44:11.184Z,5
2019-05-15T04:46:30.040Z,5.1
2019-05-15T04:47:39.560Z,5
2019-05-15T04:48:50.093Z,5
2019-05-15T04:49:58.988Z,5
2019-05-15T04:51:09.438Z,5
2019-05-15T04:52:18.866Z,5
2019-05-15T04:53:24.956Z,5
2019-05-15T04:54:34.193Z,5.2
2019-05-15T04:55:43.712Z,5.1
2019-05-15T04:56:53.407Z,5.2
2019-05-15T04:58:02.082Z,5.1
2019-05-15T04:59:11.283Z,5.1
2019-05-15T05:00:20.455Z,5.1
2019-05-15T05:01:29.730Z,5.1
2019-05-15T05:02:39.808Z,5
2019-05-15T05:03:49.537Z,5.1
2019-05-15T05:04:58.783Z,5.2
2019-05-15T05:06:09.658Z,5.3
2019-05-15T05:07:18.680Z,5.4
2019-05-15T05:08:25.339Z,5.4
2019-05-15T05:09:34.614Z,5.5
2019-05-15T05:10:44.978Z,5.5
2019-05-15T05:11:53.150Z,5.5
2019-05-15T05:13:02.493Z,5.6
2019-05-15T05:14:11.709Z,5.7
2019-05-15T05:15:21.048Z,5.7
2019-05-15T05:16:30.292Z,5.8
2019-05-15T05:17:39.589Z,5.8
2019-05-15T05:18:49.008Z,5.8
2019-05-15T05:19:58.382Z,5.7
2019-05-15T05:21:07.789Z,5.9
2019-05-15T05:22:18.690Z,5.9
2019-05-15T05:24:35.260Z,6.2
2019-05-15T05:25:44.553Z,6.2
2019-05-15T05:26:53.896Z,6.2
2019-05-15T05:28:03.215Z,6.3
2019-05-15T05:29:12.470Z,6.3
2019-05-15T05:30:21.968Z,6.3
2019-05-15T05:31:31.055Z,6.4
2019-05-15T05:32:40.382Z,6.5
2019-05-15T05:33:49.731Z,6.4
2019-05-15T05:36:08.283Z,6.6
2019-05-15T05:37:18.590Z,6.6
2019-05-15T05:38:28.106Z,6.7
2019-05-15T05:39:36.231Z,6.6
2019-05-15T05:40:49.637Z,6.7
2019-05-15T05:41:54.942Z,6.7
2019-05-15T05:43:04.402Z,6.7
2019-05-15T05:44:13.486Z,6.8
2019-05-15T05:45:22.819Z,6.8
2019-05-15T05:46:32.150Z,6.9
2019-05-15T05:47:41.443Z,7.2
2019-05-15T05:48:50.795Z,7.2
2019-05-15T05:50:00.123Z,7.2
2019-05-15T05:51:09.551Z,7
2019-05-15T05:52:18.830Z,7.1
2019-05-15T05:53:28.648Z,7.2
2019-05-15T05:54:38.230Z,7.4
2019-05-15T05:55:48.862Z,7
2019-05-15T05:56:58.451Z,7.2
2019-05-15T05:58:08.010Z,7.3
2019-05-15T05:59:14.907Z,7.5
2019-05-15T06:00:24.147Z,7.4
2019-05-15T06:01:36.321Z,7.5
2019-05-15T06:02:47.544Z,7.4
2019-05-15T06:03:52.225Z,7.6
2019-05-15T06:05:01.742Z,7.6
2019-05-15T06:06:10.827Z,7.7
2019-05-15T06:07:20.197Z,7.6
2019-05-15T06:08:29.493Z,7.7
2019-05-15T06:09:38.986Z,7.5
2019-05-15T06:10:49.463Z,7.5
2019-05-15T06:11:58.270Z,7.7
2019-05-15T06:13:08.656Z,7.8
2019-05-15T06:14:18.269Z,7.9
2019-05-15T06:15:25.627Z,8.2
2019-05-15T06:16:35.279Z,8.2
2019-05-15T06:17:44.416Z,8.2
2019-05-15T06:18:53.742Z,8.2
2019-05-15T06:20:03.074Z,8.4
2019-05-15T06:21:12.441Z,8.4
2019-05-15T06:22:21.883Z,8.4
2019-05-15T06:23:34.534Z,8.5
2019-05-15T06:24:40.615Z,8.6
2019-05-15T06:25:49.962Z,8.8
2019-05-15T06:26:59.305Z,8.8
2019-05-15T06:28:09.159Z,8.8
2019-05-15T06:29:18.151Z,8.9
2019-05-15T06:30:30.531Z,9
2019-05-15T06:31:38.777Z,9.2
2019-05-15T06:33:01.618Z,9.2
2019-05-15T06:33:57.920Z,9.2
2019-05-15T06:35:04.954Z,9.1
2019-05-15T06:36:14.367Z,9.3
2019-05-15T06:37:23.740Z,9.6
2019-05-15T06:38:33.132Z,9.7
2019-05-15T06:39:42.998Z,9.9
2019-05-15T06:42:01.802Z,10.2
2019-05-15T06:43:10.728Z,10.5
2019-05-15T06:44:20.192Z,10.9
2019-05-15T06:45:29.987Z,10.8
2019-05-15T06:46:39.401Z,11.4
2019-05-15T06:47:48.452Z,11
2019-05-15T06:48:58.212Z,11.6
2019-05-15T06:50:08.546Z,12
2019-05-15T06:51:18.124Z,12.8
2019-05-15T06:52:28.368Z,13.7
2019-05-15T06:53:35.657Z,13.7
2019-05-15T06:54:45.177Z,14.4
2019-05-15T06:55:54.698Z,15.2
2019-05-15T06:57:04.618Z,15.3
2019-05-15T06:58:13.717Z,16
2019-05-15T06:59:23.285Z,16
2019-05-15T07:01:42.462Z,16.3
2019-05-15T07:02:52.109Z,16.4
2019-05-15T07:04:03.613Z,16.6
2019-05-15T07:05:15.238Z,16.5
2019-05-15T07:06:28.636Z,16.8
2019-05-15T07:07:38.998Z,17
2019-05-15T07:08:50.133Z,16.7
2019-05-15T07:10:02.844Z,14.4
2019-05-15T07:11:14.091Z,16.2
2019-05-15T07:12:25.257Z,17
2019-05-15T07:13:38.206Z,16.5
2019-05-15T07:14:48.861Z,17.3
2019-05-15T07:16:00.262Z,15.2
2019-05-15T07:17:12.167Z,15.4
2019-05-15T07:18:23.704Z,15.5
2019-05-15T07:19:35.472Z,14.5
2019-05-15T07:20:48.763Z,14.6
2019-05-15T07:21:58.909Z,15.4
2019-05-15T07:23:10.626Z,15.5
2019-05-15T07:24:24.444Z,15.3
2019-05-15T07:25:38.967Z,16.5
2019-05-15T07:26:52.055Z,16.4
2019-05-15T07:28:05.693Z,17.6
2019-05-15T07:29:18.814Z,16.6
2019-05-15T07:30:29.250Z,17.9
2019-05-15T07:31:43.028Z,18.4
2019-05-15T07:32:58.164Z,18.7
2019-05-15T07:34:10.586Z,19.3
2019-05-15T07:35:24.722Z,19.7
2019-05-15T07:36:38.959Z,19
2019-05-15T07:37:52.220Z,18.7
2019-05-15T07:39:08.333Z,18.8
2019-05-15T07:40:24.543Z,18
2019-05-15T07:41:39.119Z,18
2019-05-15T07:42:48.960Z,16.8
2019-05-15T07:44:01.366Z,16.2
2019-05-15T07:45:14.938Z,17.4
2019-05-15T07:46:28.989Z,17.9
2019-05-15T07:47:42.825Z,17.8
2019-05-15T07:48:58.283Z,17.4
2019-05-15T07:50:10.171Z,17.6
2019-05-15T07:51:24.264Z,17.7
2019-05-15T07:52:39.352Z,18.5
2019-05-15T07:55:05.466Z,19.2
2019-05-15T07:56:19.419Z,19.9
2019-05-15T07:57:33.206Z,19.5
2019-05-15T07:58:52.344Z,18.2
2019-05-15T08:00:01.023Z,18
2019-05-15T08:01:14.971Z,18.6
2019-05-15T08:02:28.724Z,18.3
2019-05-15T08:04:57.621Z,13.8
2019-05-15T08:06:10.215Z,13.3
2019-05-15T08:07:23.814Z,13.2
2019-05-15T08:08:39.257Z,14
2019-05-15T08:11:17.241Z,13.2
2019-05-15T08:12:19.216Z,13.7
2019-05-15T08:13:32.521Z,13.4
2019-05-15T08:14:48.141Z,12.8
2019-05-15T08:15:58.062Z,11.5
2019-05-15T08:17:11.449Z,11.6
2019-05-15T08:18:22.784Z,12.3
2019-05-15T08:19:34.366Z,12.6
2019-05-15T08:20:44.268Z,13.1
2019-05-15T08:21:53.614Z,12.3
2019-05-15T08:23:03.121Z,12.5
2019-05-15T08:24:12.754Z,11.9
2019-05-15T08:25:31.902Z,12
2019-05-15T08:26:32.274Z,11.8
2019-05-15T08:27:41.302Z,11.9
2019-05-15T08:28:50.864Z,13
2019-05-15T08:30:00.487Z,13.9
2019-05-15T08:31:12.714Z,14.4
2019-05-15T08:32:23.469Z,14.8
2019-05-15T08:33:35.136Z,15
2019-05-15T08:34:48.007Z,15.7
2019-05-15T08:35:58.765Z,12.7
2019-05-15T08:37:12.009Z,13.6
2019-05-15T08:38:25.604Z,14.6
2019-05-15T08:39:39.232Z,14.8
2019-05-15T08:40:55.753Z,15.8
2019-05-15T08:42:07.944Z,16.5
2019-05-15T08:43:20.270Z,17.6
2019-05-15T08:44:33.990Z,17.8
2019-05-15T08:47:01.162Z,16.6
2019-05-15T08:48:14.903Z,15.6
2019-05-15T08:49:28.344Z,14.8
2019-05-15T08:50:36.263Z,14.2
2019-05-15T08:51:48.587Z,14.3
2019-05-15T08:52:59.619Z,15.1
2019-05-15T08:54:11.323Z,15.2
2019-05-15T08:55:22.883Z,15
2019-05-15T08:56:34.552Z,14.8
2019-05-15T08:57:54.004Z,14.7
2019-05-15T08:58:58.135Z,15.4
2019-05-15T09:00:10.079Z,15.4
2019-05-15T09:01:21.195Z,15.8
2019-05-15T09:02:32.800Z,15.7
2019-05-15T09:03:48.797Z,16.1
2019-05-15T09:04:58.169Z,16
2019-05-15T09:06:11.757Z,16.4
2019-05-15T09:07:25.402Z,16.9
2019-05-15T09:08:39.422Z,16.9
2019-05-15T09:09:53.071Z,17.2
2019-05-15T09:11:12.172Z,17.2
2019-05-15T09:12:18.826Z,16.6
2019-05-15T09:13:29.190Z,15.7
2019-05-15T09:14:39.390Z,15.4
2019-05-15T09:15:51.177Z,15
2019-05-15T09:17:00.890Z,13.9
2019-05-15T09:18:15.790Z,15.5
2019-05-15T09:19:28.184Z,16.9
2019-05-15T09:20:41.796Z,17.1
2019-05-15T09:21:55.487Z,17.3
2019-05-15T09:23:08.931Z,16.3
2019-05-15T09:24:20.889Z,16.9
2019-05-15T09:25:34.482Z,17.9
2019-05-15T09:26:48.811Z,17.7
2019-05-15T09:28:00.019Z,15.8
2019-05-15T09:29:13.559Z,17.3
2019-05-15T09:30:28.590Z,18
2019-05-15T09:31:41.181Z,18.5
2019-05-15T09:32:54.698Z,18.6
2019-05-15T09:34:09.069Z,19.1
2019-05-15T09:35:22.302Z,19.1
2019-05-15T09:36:35.953Z,19.7
2019-05-15T09:37:49.745Z,19.9
2019-05-15T09:39:03.586Z,18.6
2019-05-15T09:41:32.920Z,18.1
2019-05-15T09:42:48.664Z,17.8
2019-05-15T09:44:00.624Z,18.1
2019-05-15T09:45:14.467Z,19.1
2019-05-15T09:46:29.117Z,20.3
2019-05-15T09:47:44.073Z,20.4
2019-05-15T09:48:59.882Z,21.4
2019-05-15T09:50:15.801Z,22
2019-05-15T09:51:31.529Z,22.4
2019-05-15T09:52:50.046Z,22.3
2019-05-15T09:54:03.424Z,20.9
2019-05-15T09:55:19.072Z,20.7
2019-05-15T09:56:34.932Z,21.7
2019-05-15T09:57:50.872Z,21.6
2019-05-15T09:59:08.800Z,21.3
2019-05-15T10:00:22.935Z,21.2
2019-05-15T10:01:39.422Z,21.4
2019-05-15T10:02:54.626Z,20.6
2019-05-15T10:04:10.378Z,20.8
2019-05-15T10:06:40.018Z,21.2
2019-05-15T10:07:55.800Z,21.1
2019-05-15T10:09:11.655Z,21.3
2019-05-15T10:10:32.487Z,20.3
2019-05-15T10:11:43.380Z,19.5
2019-05-15T10:12:59.509Z,18.9
2019-05-15T10:14:13.083Z,19.7
2019-05-15T10:15:26.926Z,19
2019-05-15T10:16:40.800Z,16.9
2019-05-15T10:17:54.934Z,16.9
2019-05-15T10:20:22.233Z,18.2
2019-05-15T10:21:35.954Z,18.4
2019-05-15T10:22:49.786Z,17.4
2019-05-15T10:24:03.784Z,17.5
2019-05-15T10:25:18.944Z,15.9
2019-05-15T10:26:31.017Z,15.8
2019-05-15T10:27:44.777Z,14.9
2019-05-15T10:28:58.594Z,13.8
2019-05-15T10:30:12.296Z,14.7
2019-05-15T10:31:24.249Z,14.9
2019-05-15T10:32:35.768Z,14.8
2019-05-15T10:33:49.450Z,15.8
2019-05-15T10:35:02.935Z,16.1
2019-05-15T10:36:18.840Z,16.1
2019-05-15T10:37:28.572Z,14.9
2019-05-15T10:38:40.070Z,15.9
2019-05-15T10:41:10.990Z,16.3
2019-05-15T10:42:19.300Z,16
2019-05-15T10:43:28.819Z,15.8
2019-05-15T10:44:42.286Z,16.5
2019-05-15T10:45:54.743Z,14.7
2019-05-15T10:47:08.806Z,15.3
2019-05-15T10:49:34.759Z,16.3
2019-05-15T10:50:48.570Z,16.3
2019-05-15T10:52:02.033Z,15.1
2019-05-15T10:53:13.683Z,14.8
2019-05-15T10:54:28.855Z,15.9
2019-05-15T10:56:54.581Z,16.4
2019-05-15T10:58:14.014Z,16.4
2019-05-15T10:59:21.855Z,16.6
2019-05-15T11:00:35.752Z,16.7
2019-05-15T11:01:49.127Z,17
2019-05-15T11:03:02.896Z,16.8
2019-05-15T11:04:14.396Z,15.3
2019-05-15T11:05:40.460Z,16.1
2019-05-15T11:06:39.682Z,16.3
2019-05-15T11:07:53.287Z,16.5
2019-05-15T11:09:08.381Z,16.8
2019-05-15T11:10:23.167Z,16.9
2019-05-15T11:11:34.280Z,17.2
2019-05-15T11:14:01.589Z,17
2019-05-15T11:15:15.216Z,17
2019-05-15T11:16:28.804Z,16.6
2019-05-15T11:17:43.668Z,16.8
2019-05-15T11:18:58.494Z,17
2019-05-15T11:20:11.412Z,16.9
2019-05-15T11:21:24.569Z,16.7
2019-05-15T11:23:49.325Z,15.7
2019-05-15T11:24:59.767Z,15.6
2019-05-15T11:26:11.239Z,15
2019-05-15T11:27:24.797Z,15.7
2019-05-15T11:28:38.971Z,15.6
2019-05-15T11:29:48.095Z,15.6
2019-05-15T11:31:00.328Z,16.1
2019-05-15T11:32:11.367Z,15.9
2019-05-15T11:33:21.074Z,14.9
2019-05-15T11:34:34.496Z,15.7
2019-05-15T11:36:00.334Z,15.7
2019-05-15T11:37:03.855Z,15.9
2019-05-15T11:38:19.404Z,16.1
2019-05-15T11:39:30.958Z,16.2
2019-05-15T11:40:51.840Z,16.5
2019-05-15T11:41:55.040Z,16.2
2019-05-15T11:43:08.469Z,16.4
2019-05-15T11:44:19.423Z,15.8
2019-05-15T11:45:31.173Z,15.8
2019-05-15T11:46:42.692Z,14.9
2019-05-15T11:47:52.316Z,14.1
2019-05-15T11:49:01.900Z,13.5
2019-05-15T11:50:11.495Z,13.6
2019-05-15T11:51:23.178Z,14.6
2019-05-15T11:52:36.346Z,14.6
2019-05-15T11:53:44.459Z,15.1
2019-05-15T11:54:58.775Z,15
2019-05-15T11:56:09.768Z,15.6
2019-05-15T11:57:37.144Z,16.2
2019-05-15T11:59:53.717Z,14.8
2019-05-15T12:00:57.907Z,14.3
2019-05-15T12:03:24.910Z,16.1
2019-05-15T12:04:35.076Z,15.5
2019-05-15T12:05:48.504Z,16.3
2019-05-15T12:07:02.700Z,16.6
2019-05-15T12:08:18.436Z,16.5
2019-05-15T12:09:29.497Z,16.5
2019-05-15T12:10:45.811Z,16.8
2019-05-15T12:11:56.676Z,16.2
2019-05-15T12:13:10.275Z,16.2
2019-05-15T12:14:24.144Z,16.7
2019-05-15T12:15:38.752Z,17.2
2019-05-15T12:17:04.991Z,17.1
2019-05-15T12:18:05.002Z,17.9
2019-05-15T12:19:18.909Z,17.8
2019-05-15T12:20:32.509Z,17.9
2019-05-15T12:21:48.554Z,17.9
2019-05-15T12:22:59.613Z,17.6
2019-05-15T12:24:13.339Z,16.3
2019-05-15T12:25:29.156Z,15.5
2019-05-15T12:26:39.217Z,14.7
2019-05-15T12:27:50.228Z,15.9
2019-05-15T12:29:03.809Z,16.3
2019-05-15T12:30:15.903Z,15.8
2019-05-15T12:31:27.961Z,15.4
2019-05-15T12:32:40.828Z,16
2019-05-15T12:33:54.449Z,16.2
2019-05-15T12:35:08.211Z,16.6
2019-05-15T12:36:45.276Z,16.9
2019-05-15T14:00:58.742Z,12.6
2019-05-15T14:01:53.107Z,12.8
2019-05-15T14:02:54.295Z,12.4
2019-05-15T14:04:01.335Z,12.3
2019-05-15T14:05:10.571Z,12.1
2019-05-15T14:06:19.888Z,12.6
2019-05-15T14:07:43.688Z,12.8
2019-05-15T14:08:38.780Z,12.5
2019-05-15T14:09:48.384Z,12.4
2019-05-15T14:10:58.205Z,12.1
2019-05-15T14:12:11.910Z,12.2
2019-05-15T14:13:18.834Z,12.1
2019-05-15T14:14:28.526Z,12.2
2019-05-15T14:15:37.980Z,12.4
2019-05-15T14:16:45.138Z,12.4
2019-05-15T14:17:54.929Z,12.2
2019-05-15T14:19:04.109Z,12.3
2019-05-15T14:20:13.676Z,12.4
2019-05-15T14:21:23.043Z,12.7
2019-05-15T14:22:32.584Z,12.8
2019-05-15T14:23:42.072Z,12.9
2019-05-15T14:26:15.002Z,13
2019-05-15T14:27:10.485Z,13
2019-05-15T14:28:20.063Z,13.1
2019-05-15T14:29:29.451Z,13.2
2019-05-15T14:30:38.939Z,13.1
2019-05-15T14:31:48.495Z,13.4
2019-05-15T14:32:59.626Z,13.5
2019-05-15T14:34:08.775Z,13.6
2019-05-15T14:35:17.991Z,13.5
2019-05-15T14:36:28.294Z,13.6
2019-05-15T14:37:35.894Z,13.8
2019-05-15T14:38:45.388Z,13.8
2019-05-15T14:39:54.999Z,13.9
2019-05-15T14:41:04.383Z,14
2019-05-15T14:42:13.980Z,14.2
2019-05-15T14:43:23.456Z,14.2
2019-05-15T14:44:33.129Z,14.3
2019-05-15T14:45:42.419Z,14.2
2019-05-15T14:46:51.970Z,14.2
2019-05-15T14:48:01.478Z,14.3
2019-05-15T14:49:11.002Z,14.4
2019-05-15T14:50:20.577Z,14.5
2019-05-15T14:51:30.134Z,14.4
2019-05-15T14:52:39.569Z,14.5
2019-05-15T14:53:49.188Z,14.6
2019-05-15T14:55:00.014Z,14.7
2019-05-15T14:56:08.735Z,14.4
2019-05-15T14:57:18.241Z,14.3
2019-05-15T14:58:27.205Z,14.1
2019-05-15T14:59:38.129Z,14.3
2019-05-15T15:00:49.857Z,14.3
2019-05-15T15:01:57.956Z,14
2019-05-15T15:03:05.357Z,13.7
2019-05-15T15:04:14.856Z,14
2019-05-15T15:05:24.526Z,14.1
2019-05-15T15:06:34.480Z,14.3
2019-05-15T15:07:43.513Z,14.1
2019-05-15T15:08:53.021Z,13.9
2019-05-15T15:10:02.600Z,13.7
2019-05-15T15:11:12.187Z,13.9
2019-05-15T15:12:21.677Z,13.9
2019-05-15T15:13:31.195Z,13.8
2019-05-15T15:14:40.631Z,14.1
2019-05-15T15:15:50.233Z,13.7
2019-05-15T15:16:59.701Z,14
2019-05-15T15:18:09.244Z,13.9
2019-05-15T15:19:18.811Z,13.9
2019-05-15T15:20:28.664Z,14.1
2019-05-15T15:21:38.517Z,14.1
2019-05-15T15:22:48.462Z,13.9
2019-05-15T15:23:58.682Z,14
2019-05-15T15:25:09.456Z,14
2019-05-15T15:26:19.091Z,14.3
2019-05-15T15:27:28.051Z,14.5
2019-05-15T15:28:36.614Z,14.7
2019-05-15T15:29:48.159Z,14.7
2019-05-15T15:30:57.878Z,14.4
2019-05-15T15:32:05.214Z,14.4
2019-05-15T15:33:14.770Z,14.5
2019-05-15T15:34:24.325Z,14.5
2019-05-15T15:35:33.931Z,14.4
2019-05-15T15:36:43.572Z,14.1
2019-05-15T15:37:53.005Z,13.8
2019-05-15T15:39:03.688Z,13.8
2019-05-15T15:40:13.356Z,13.8
2019-05-15T15:41:22.904Z,14
2019-05-15T15:42:32.411Z,14.1
2019-05-15T15:43:41.881Z,14.2
2019-05-15T15:44:51.441Z,13.7
2019-05-15T15:46:00.919Z,13.7
2019-05-15T15:47:11.143Z,13.6
2019-05-15T15:48:20.047Z,13.7
2019-05-15T15:49:29.532Z,13.6
2019-05-15T15:50:39.046Z,13.6
2019-05-15T15:51:48.876Z,13.7
2019-05-15T15:52:59.270Z,13.7
2019-05-15T15:54:08.426Z,13.5
2019-05-15T15:55:18.393Z,13.4
2019-05-15T15:56:28.961Z,13.5
2019-05-15T15:57:36.159Z,12.6
2019-05-15T15:58:45.691Z,12.9
2019-05-15T15:59:55.167Z,13.1
2019-05-15T16:01:04.832Z,12.8
2019-05-15T16:02:14.186Z,12.6
2019-05-15T16:03:23.807Z,12.5
2019-05-15T16:04:33.188Z,12.7
2019-05-15T16:05:42.708Z,12.8
2019-05-15T16:06:52.197Z,13.1
2019-05-15T16:08:01.687Z,13.3
2019-05-15T16:09:11.369Z,13.2
2019-05-15T16:10:20.836Z,13.2
2019-05-15T16:11:30.273Z,13.3
2019-05-15T16:12:39.790Z,13.2
2019-05-15T16:13:49.790Z,13.3
2019-05-15T16:14:58.753Z,13.2
2019-05-15T16:16:08.680Z,13.3
2019-05-15T16:17:18.163Z,13.5
2019-05-15T16:18:28.863Z,13.3
2019-05-15T16:19:38.838Z,13.3
2019-05-15T16:20:48.493Z,13.2
2019-05-15T16:21:55.848Z,13.1
2019-05-15T16:23:05.315Z,13.3
2019-05-15T16:24:17.907Z,13.3
2019-05-15T16:25:24.205Z,13.3
2019-05-15T16:26:33.965Z,13.5
2019-05-15T16:27:43.183Z,13.2
2019-05-15T16:28:52.708Z,13.3
2019-05-15T16:30:02.307Z,13.3
2019-05-15T16:31:11.793Z,13.2
2019-05-15T16:32:21.955Z,13.2
2019-05-15T16:33:30.792Z,13.2
2019-05-15T16:34:40.193Z,13.2
2019-05-15T16:35:49.660Z,13
2019-05-15T16:36:59.207Z,13
2019-05-15T16:38:09.204Z,12.8
2019-05-15T16:39:18.386Z,12.9
2019-05-15T16:40:28.753Z,12.8
2019-05-15T16:41:38.244Z,12.9
2019-05-15T16:42:48.770Z,12.9
2019-05-15T16:43:57.788Z,12.7
2019-05-15T16:45:05.658Z,12.4
2019-05-15T16:46:15.775Z,12.5
2019-05-15T16:47:24.770Z,12.5
2019-05-15T16:48:34.169Z,12.3
2019-05-15T16:49:43.607Z,12.3
2019-05-15T16:50:53.119Z,12.4
2019-05-15T16:52:02.638Z,12.4
2019-05-15T16:53:12.015Z,12.6
2019-05-15T16:54:21.574Z,12.6
2019-05-15T16:55:31.115Z,12.5
2019-05-15T16:56:40.477Z,12.5
2019-05-15T16:57:49.976Z,12.5
2019-05-15T16:58:59.749Z,12.6
2019-05-15T17:00:09.657Z,12.6
2019-05-15T17:01:18.769Z,12.6
2019-05-15T17:03:38.002Z,12.6
2019-05-15T17:04:48.812Z,12.7
2019-05-15T17:05:58.267Z,12.7
2019-05-15T17:07:05.767Z,12.6
2019-05-15T17:08:15.249Z,12.5
2019-05-15T17:09:24.720Z,12.3
2019-05-15T17:10:34.180Z,12.2
2019-05-15T17:11:43.685Z,12.2
2019-05-15T17:12:53.139Z,12.1
2019-05-15T17:14:02.603Z,12.2
2019-05-15T17:15:12.115Z,12
2019-05-15T17:16:21.611Z,12
2019-05-15T17:17:31.113Z,12
2019-05-15T17:18:40.732Z,12
2019-05-15T17:19:49.974Z,12
2019-05-15T17:20:59.466Z,11.9
2019-05-15T17:22:09.527Z,11.9
2019-05-15T17:23:18.857Z,11.8
2019-05-15T17:24:27.909Z,11.6
2019-05-15T17:25:38.154Z,11.5
2019-05-15T17:26:48.410Z,11.5
2019-05-15T17:27:57.910Z,11.7
2019-05-15T17:29:05.719Z,11.7
2019-05-15T17:30:15.115Z,11.5
2019-05-15T17:31:24.593Z,11.3
2019-05-15T17:32:34.095Z,11.5
2019-05-15T17:33:43.525Z,11.5
2019-05-15T17:34:52.926Z,11.5
2019-05-15T17:36:02.452Z,11.5
2019-05-15T17:37:11.835Z,11.6
2019-05-15T17:38:21.288Z,11.5
2019-05-15T17:39:34.825Z,11.3
2019-05-15T17:40:40.348Z,11.3
2019-05-15T17:41:49.632Z,11
2019-05-15T17:43:02.142Z,11.2
2019-05-15T17:44:08.603Z,11.2
2019-05-15T17:45:19.287Z,11.3
2019-05-15T17:46:29.495Z,11.1
2019-05-15T17:47:38.706Z,11
2019-05-15T17:48:53.987Z,10.9
2019-05-15T17:49:55.745Z,10.9
2019-05-15T17:51:05.248Z,10.9
2019-05-15T17:52:14.625Z,10.9
2019-05-15T17:53:24.119Z,10.8